createdAt,value
2019-04-22T00:00:40.758Z,101116.00
2019-04-22T00:03:15.101Z,101111.00
2019-04-22T00:06:06.189Z,101108.00
2019-04-22T00:08:45.729Z,101103.00
2019-04-22T00:11:25.789Z,101080.00
2019-04-22T00:13:52.997Z,101099.00
2019-04-22T00:16:34.494Z,101102.00
2019-04-22T00:24:05.881Z,101094.00
2019-04-22T00:26:45.870Z,101100.00
2019-04-22T00:29:39.440Z,101091.00
2019-04-22T00:31:52.871Z,101089.00
2019-04-22T00:34:29.401Z,101094.00
2019-04-22T00:37:00.555Z,101088.00
2019-04-22T00:39:44.695Z,101090.00
2019-04-22T00:42:18.036Z,101079.00
2019-04-22T00:44:46.996Z,101082.00
2019-04-22T00:47:23.414Z,101084.00
2019-04-22T00:52:32.472Z,101081.00
2019-04-22T00:55:10.103Z,101082.00
2019-04-22T00:57:32.435Z,101081.00
2019-04-22T01:00:05.528Z,101077.00
2019-04-22T01:02:46.219Z,101080.00
2019-04-22T01:05:21.415Z,101082.00
2019-04-22T01:07:49.917Z,101075.00
2019-04-22T01:10:26.360Z,101076.00
2019-04-22T01:12:57.150Z,101073.00
2019-04-22T01:15:30.523Z,101076.00
2019-04-22T01:18:02.427Z,101083.00
2019-04-22T01:21:00.942Z,101071.00
2019-04-22T01:23:05.695Z,101066.00
2019-04-22T01:25:42.096Z,101074.00
2019-04-22T01:28:12.536Z,101071.00
2019-04-22T01:30:40.671Z,101062.00
2019-04-22T01:33:12.785Z,101078.00
2019-04-22T01:36:00.362Z,101073.00
2019-04-22T01:38:31.418Z,101077.00
2019-04-22T01:41:16.859Z,101069.00
2019-04-22T01:43:54.487Z,101072.00
2019-04-22T01:46:18.425Z,101069.00
2019-04-22T01:48:57.698Z,101068.00
2019-04-22T01:51:39.305Z,101063.00
2019-04-22T01:54:04.142Z,101069.00
2019-04-22T01:56:33.338Z,101061.00
2019-04-22T01:58:59.220Z,101060.00
2019-04-22T02:01:43.634Z,101065.00
2019-04-22T02:04:17.605Z,101062.00
2019-04-22T02:06:48.548Z,101068.00
2019-04-22T02:09:24.044Z,101062.00
2019-04-22T02:11:56.927Z,101055.00
2019-04-22T02:14:31.095Z,101059.00
2019-04-22T02:17:01.296Z,101049.00
2019-04-22T02:21:59.637Z,101051.00
2019-04-22T02:24:53.822Z,101054.00
2019-04-22T02:27:17.682Z,101054.00
2019-04-22T02:29:50.356Z,101047.00
2019-04-22T02:32:38.899Z,101051.00
2019-04-22T02:35:07.663Z,101054.00
2019-04-22T02:40:03.438Z,101029.00
2019-04-22T02:42:32.332Z,101031.00
2019-04-22T02:45:26.346Z,101028.00
2019-04-22T02:47:58.735Z,101021.00
2019-04-22T02:50:12.653Z,101024.00
2019-04-22T02:52:47.279Z,101028.00
2019-04-22T02:55:23.424Z,101027.00
2019-04-22T02:58:16.495Z,101017.00
2019-04-22T03:00:37.850Z,101023.00
2019-04-22T03:05:47.057Z,101017.00
2019-04-22T03:08:15.088Z,101010.00
2019-04-22T03:16:04.548Z,100997.00
2019-04-22T03:18:29.091Z,101012.00
2019-04-22T03:21:07.373Z,101011.00
2019-04-22T03:28:46.258Z,101002.00
2019-04-22T03:32:36.092Z,100999.00
2019-04-22T03:37:20.730Z,101001.00
2019-04-22T03:40:00.060Z,101003.00
2019-04-22T03:42:09.904Z,100997.00
2019-04-22T03:50:04.155Z,100999.00
2019-04-22T03:52:22.175Z,100993.00
2019-04-22T04:00:19.866Z,100989.00
2019-04-22T04:05:24.283Z,100982.00
2019-04-22T04:10:30.163Z,100985.00
2019-04-22T04:13:03.551Z,100976.00
2019-04-22T04:15:24.889Z,100985.00
2019-04-22T04:17:55.005Z,100985.00
2019-04-22T04:28:29.497Z,100981.00
2019-04-22T04:30:48.793Z,100982.00
2019-04-22T04:35:58.626Z,100985.00
2019-04-22T04:38:28.740Z,100989.00
2019-04-22T04:41:10.811Z,100987.00
2019-04-22T04:46:13.880Z,100987.00
2019-04-22T04:51:33.221Z,100993.00
2019-04-22T04:54:15.506Z,100992.00
2019-04-22T04:56:30.370Z,100994.00
2019-04-22T04:59:05.975Z,100982.00
2019-04-22T05:01:30.872Z,100989.00
2019-04-22T05:04:05.029Z,100990.00
2019-04-22T05:06:43.283Z,100988.00
2019-04-22T05:09:22.509Z,100983.00
2019-04-22T05:12:03.562Z,100985.00
2019-04-22T05:14:24.883Z,100975.00
2019-04-22T05:16:51.517Z,100970.00
2019-04-22T05:19:20.277Z,100975.00
2019-04-22T05:21:56.575Z,100989.00
2019-04-22T05:24:28.298Z,100982.00
2019-04-22T05:26:57.466Z,100985.00
2019-04-22T05:29:41.997Z,100988.00
2019-04-22T05:32:03.110Z,100984.00
2019-04-22T05:34:34.602Z,100985.00
2019-04-22T05:37:10.825Z,100984.00
2019-04-22T05:39:42.458Z,100987.00
2019-04-22T05:42:14.046Z,100988.00
2019-04-22T05:44:52.903Z,100988.00
2019-04-22T05:47:22.493Z,100980.00
2019-04-22T05:49:55.162Z,100987.00
2019-04-22T05:52:25.594Z,100987.00
2019-04-22T05:55:02.508Z,100977.00
2019-04-22T05:57:34.415Z,100985.00
2019-04-22T06:02:56.841Z,100987.00
2019-04-22T06:05:16.651Z,100988.00
2019-04-22T06:07:45.651Z,100984.00
2019-04-22T06:10:32.937Z,100987.00
2019-04-22T06:12:57.836Z,100993.00
2019-04-22T06:15:44.176Z,100994.00
2019-04-22T06:18:17.613Z,100998.00
2019-04-22T06:20:53.140Z,100997.00
2019-04-22T06:23:27.455Z,101002.00
2019-04-22T06:28:35.227Z,100998.00
2019-04-22T06:33:34.712Z,100999.00
2019-04-22T06:36:08.822Z,101000.00
2019-04-22T06:38:46.274Z,100997.00
2019-04-22T06:41:24.847Z,100996.00
2019-04-22T06:43:56.323Z,100992.00
2019-04-22T06:46:27.462Z,100993.00
2019-04-22T06:48:55.169Z,100990.00
2019-04-22T06:51:32.459Z,100992.00
2019-04-22T06:54:02.968Z,100998.00
2019-04-22T06:56:35.523Z,100993.00
2019-04-22T06:59:14.710Z,100985.00
2019-04-22T07:01:42.301Z,100986.00
2019-04-22T07:04:17.102Z,100999.00
2019-04-22T07:06:58.103Z,100990.00
2019-04-22T07:12:02.165Z,100991.00
2019-04-22T07:14:28.605Z,100994.00
2019-04-22T07:17:02.159Z,100990.00
2019-04-22T07:19:37.154Z,100984.00
2019-04-22T07:22:11.104Z,100984.00
2019-04-22T07:24:47.797Z,100980.00
2019-04-22T07:27:14.528Z,100985.00
2019-04-22T07:29:58.138Z,100972.00
2019-04-22T07:32:33.350Z,100988.00
2019-04-22T07:35:03.747Z,100985.00
2019-04-22T07:40:02.590Z,100990.00
2019-04-22T07:42:36.471Z,100989.00
2019-04-22T07:45:10.296Z,100981.00
2019-04-22T07:47:52.187Z,100978.00
2019-04-22T07:50:37.422Z,100983.00
2019-04-22T07:52:52.147Z,100974.00
2019-04-22T07:55:27.757Z,100975.00
2019-04-22T07:58:05.069Z,100975.00
2019-04-22T08:03:14.799Z,100973.00
2019-04-22T08:05:52.157Z,100970.00
2019-04-22T08:08:27.580Z,100973.00
2019-04-22T08:10:48.409Z,100983.00
2019-04-22T08:13:25.331Z,100977.00
2019-04-22T08:15:58.861Z,100982.00
2019-04-22T08:21:07.463Z,100976.00
2019-04-22T08:26:05.504Z,100976.00
2019-04-22T08:28:46.877Z,100977.00
2019-04-22T08:31:27.050Z,100980.00
2019-04-22T08:34:12.069Z,100977.00
2019-04-22T08:36:29.185Z,100972.00
2019-04-22T08:39:16.765Z,100969.00
2019-04-22T08:41:32.117Z,100968.00
2019-04-22T08:46:40.046Z,100966.00
2019-04-22T08:49:10.244Z,100965.00
2019-04-22T08:51:46.085Z,100965.00
2019-04-22T08:54:19.729Z,100963.00
2019-04-22T08:56:49.409Z,100961.00
2019-04-22T08:59:21.803Z,100959.00
2019-04-22T09:02:07.756Z,100965.00
2019-04-22T09:04:34.706Z,100961.00
2019-04-22T09:09:44.523Z,100953.00
2019-04-22T09:12:20.042Z,100945.00
2019-04-22T09:14:55.987Z,100944.00
2019-04-22T09:17:22.779Z,100944.00
2019-04-22T09:19:58.558Z,100938.00
2019-04-22T09:22:26.209Z,100944.00
2019-04-22T09:24:57.330Z,100936.00
2019-04-22T09:27:40.011Z,100933.00
2019-04-22T09:30:14.387Z,100928.00
2019-04-22T09:32:44.779Z,100932.00
2019-04-22T09:35:16.182Z,100924.00
2019-04-22T09:40:35.144Z,100916.00
2019-04-22T09:43:17.378Z,100913.00
2019-04-22T09:49:55.253Z,100913.00
2019-04-22T09:52:20.553Z,100908.00
2019-04-22T09:54:59.879Z,100878.00
2019-04-22T10:02:42.719Z,100897.00
2019-04-22T10:05:15.006Z,100889.00
2019-04-22T10:07:50.814Z,100890.00
2019-04-22T10:12:46.769Z,100886.00
2019-04-22T10:15:25.138Z,100869.00
2019-04-22T10:17:56.541Z,100877.00
2019-04-22T10:20:31.170Z,100870.00
2019-04-22T10:23:05.884Z,100862.00
2019-04-22T10:25:36.410Z,100871.00
2019-04-22T10:28:15.551Z,100864.00
2019-04-22T10:30:46.851Z,100860.00
2019-04-22T10:33:19.808Z,100870.00
2019-04-22T10:35:30.651Z,100852.00
2019-04-22T10:38:01.447Z,100834.00
2019-04-22T10:40:36.315Z,100861.00
2019-04-22T10:43:11.385Z,100859.00
2019-04-22T10:45:44.005Z,100850.00
2019-04-22T10:48:16.495Z,100850.00
2019-04-22T10:50:50.640Z,100849.00
2019-04-22T10:53:23.677Z,100813.00
2019-04-22T10:55:56.394Z,100851.00
2019-04-22T10:58:28.834Z,100834.00
2019-04-22T11:01:00.675Z,100829.00
2019-04-22T11:03:33.218Z,100834.00
2019-04-22T11:06:05.672Z,100829.00
2019-04-22T11:08:44.449Z,100822.00
2019-04-22T11:11:26.221Z,100825.00
2019-04-22T11:13:45.901Z,100828.00
2019-04-22T11:16:17.529Z,100811.00
2019-04-22T11:18:49.626Z,100803.00
2019-04-22T11:21:21.322Z,100808.00
2019-04-22T11:23:54.470Z,100807.00
2019-04-22T11:26:26.163Z,100800.00
2019-04-22T11:28:59.253Z,100807.00
2019-04-22T11:31:32.440Z,100791.00
2019-04-22T11:34:04.213Z,100795.00
2019-04-22T11:36:37.069Z,100794.00
2019-04-22T11:39:11.624Z,100793.00
2019-04-22T11:41:44.211Z,100792.00
2019-04-22T11:44:17.188Z,100796.00
2019-04-22T11:46:49.542Z,100780.00
2019-04-22T11:49:31.919Z,100778.00
2019-04-22T11:52:01.548Z,100778.00
2019-04-22T11:54:33.088Z,100777.00
2019-04-22T11:57:05.477Z,100765.00
2019-04-22T11:59:38.226Z,100759.00
2019-04-22T12:02:16.092Z,100768.00
2019-04-22T12:04:47.881Z,100765.00
2019-04-22T12:07:21.202Z,100773.00
2019-04-22T12:09:53.405Z,100762.00
2019-04-22T12:12:25.607Z,100758.00
2019-04-22T12:14:58.761Z,100753.00
2019-04-22T12:17:31.990Z,100743.00
2019-04-22T12:20:08.267Z,100743.00
2019-04-22T12:22:38.861Z,100742.00
2019-04-22T12:25:12.546Z,100723.00
2019-04-22T12:27:45.269Z,100731.00
2019-04-22T12:30:19.613Z,100729.00
2019-04-22T12:32:52.683Z,100732.00
2019-04-22T12:35:24.539Z,100716.00
2019-04-22T12:38:02.521Z,100720.00
2019-04-22T12:40:41.191Z,100716.00
2019-04-22T12:43:04.777Z,100706.00
2019-04-22T12:45:37.006Z,100712.00
2019-04-22T12:48:10.217Z,100710.00
2019-04-22T12:50:44.459Z,100709.00
2019-04-22T12:53:19.767Z,100705.00
2019-04-22T12:55:50.299Z,100700.00
2019-04-22T12:58:23.549Z,100695.00
2019-04-22T13:00:55.216Z,100695.00
2019-04-22T13:03:28.475Z,100683.00
2019-04-22T13:06:01.590Z,100684.00
2019-04-22T13:08:33.937Z,100677.00
2019-04-22T13:11:11.707Z,100686.00
2019-04-22T13:13:40.771Z,100686.00
2019-04-22T13:16:13.391Z,100676.00
2019-04-22T13:18:53.074Z,100671.00
2019-04-22T13:21:18.840Z,100668.00
2019-04-22T13:23:53.128Z,100659.00
2019-04-22T13:26:27.156Z,100662.00
2019-04-22T13:29:03.218Z,100657.00
2019-04-22T13:31:34.980Z,100655.00
2019-04-22T13:34:13.303Z,100655.00
2019-04-22T13:36:43.602Z,100659.00
2019-04-22T13:39:14.371Z,100648.00
2019-04-22T13:41:50.454Z,100659.00
2019-04-22T13:44:19.192Z,100647.00
2019-04-22T13:47:11.630Z,100639.00
2019-04-22T13:49:59.041Z,100641.00
2019-04-22T13:54:06.515Z,100645.00
2019-04-22T13:54:57.938Z,100644.00
2019-04-22T13:57:24.874Z,100644.00
2019-04-22T13:59:42.853Z,100637.00
2019-04-22T14:02:28.703Z,100635.00
2019-04-22T14:05:00.990Z,100636.00
2019-04-22T14:07:32.917Z,100640.00
2019-04-22T14:10:06.497Z,100622.00
2019-04-22T14:12:39.117Z,100627.00
2019-04-22T14:15:11.756Z,100624.00
2019-04-22T14:17:50.381Z,100624.00
2019-04-22T14:20:25.920Z,100616.00
2019-04-22T14:22:57.090Z,100619.00
2019-04-22T14:25:28.704Z,100617.00
2019-04-22T14:28:07.417Z,100627.00
2019-04-22T14:30:34.683Z,100613.00
2019-04-22T14:33:06.798Z,100604.00
2019-04-22T14:35:39.768Z,100607.00
2019-04-22T14:38:12.314Z,100608.00
2019-04-22T14:40:45.461Z,100595.00
2019-04-22T14:43:55.181Z,100611.00
2019-04-22T14:48:49.926Z,100597.00
2019-04-22T14:51:19.094Z,100600.00
2019-04-22T14:53:45.925Z,100599.00
2019-04-22T14:56:04.376Z,100601.00
2019-04-22T14:58:37.364Z,100586.00
2019-04-22T15:01:11.063Z,100583.00
2019-04-22T15:03:44.811Z,100582.00
2019-04-22T15:06:18.155Z,100578.00
2019-04-22T15:08:51.232Z,100579.00
2019-04-22T15:11:23.305Z,100576.00
2019-04-22T15:13:54.875Z,100577.00
2019-04-22T15:16:42.316Z,100576.00
2019-04-22T15:19:27.572Z,100572.00
2019-04-22T15:22:00.701Z,100577.00
2019-04-22T15:24:32.294Z,100563.00
2019-04-22T15:27:04.740Z,100572.00
2019-04-22T15:29:36.373Z,100563.00
2019-04-22T15:32:09.262Z,100563.00
2019-04-22T15:34:41.551Z,100568.00
2019-04-22T15:37:13.957Z,100567.00
2019-04-22T15:39:45.841Z,100560.00
2019-04-22T15:42:25.291Z,100572.00
2019-04-22T15:44:51.674Z,100568.00
2019-04-22T15:47:24.813Z,100566.00
2019-04-22T15:49:58.236Z,100563.00
2019-04-22T15:52:36.582Z,100568.00
2019-04-22T15:55:04.710Z,100565.00
2019-04-22T15:57:38.032Z,100558.00
2019-04-22T16:00:25.520Z,100559.00
2019-04-22T16:02:45.642Z,100558.00
2019-04-22T16:05:17.495Z,100558.00
2019-04-22T16:07:50.407Z,100562.00
2019-04-22T16:10:23.942Z,100552.00
2019-04-22T16:13:05.536Z,100560.00
2019-04-22T16:15:28.943Z,100553.00
2019-04-22T16:18:02.881Z,100550.00
2019-04-22T16:20:34.340Z,100555.00
2019-04-22T16:23:17.090Z,100551.00
2019-04-22T16:25:59.105Z,100549.00
2019-04-22T16:28:31.339Z,100542.00
2019-04-22T16:31:03.827Z,100556.00
2019-04-22T16:33:39.304Z,100554.00
2019-04-22T16:36:09.170Z,100547.00
2019-04-22T16:38:42.759Z,100551.00
2019-04-22T16:41:14.811Z,100539.00
2019-04-22T16:43:46.771Z,100540.00
2019-04-22T16:46:19.416Z,100543.00
2019-04-22T16:48:51.775Z,100534.00
2019-04-22T16:51:24.409Z,100544.00
2019-04-22T16:53:56.221Z,100541.00
2019-04-22T16:56:29.659Z,100535.00
2019-04-22T16:59:01.372Z,100536.00
2019-04-22T17:01:58.758Z,100541.00
2019-04-22T17:04:51.680Z,100530.00
2019-04-22T17:07:24.469Z,100530.00
2019-04-22T17:09:57.588Z,100529.00
2019-04-22T17:12:43.720Z,100524.00
2019-04-22T17:15:08.084Z,100529.00
2019-04-22T17:17:37.403Z,100528.00
2019-04-22T17:20:09.426Z,100534.00
2019-04-22T17:22:41.869Z,100524.00
2019-04-22T17:25:14.153Z,100530.00
2019-04-22T17:27:47.517Z,100530.00
2019-04-22T17:30:20.205Z,100531.00
2019-04-22T17:32:52.454Z,100534.00
2019-04-22T17:35:26.199Z,100536.00
2019-04-22T17:38:08.732Z,100542.00
2019-04-22T17:40:49.586Z,100538.00
2019-04-22T17:43:36.018Z,100533.00
2019-04-22T17:46:07.097Z,100540.00
2019-04-22T17:49:04.334Z,100543.00
2019-04-22T17:51:36.663Z,100542.00
2019-04-22T17:54:12.077Z,100545.00
2019-04-22T17:56:43.403Z,100543.00
2019-04-22T17:59:22.880Z,100549.00
2019-04-22T18:01:51.529Z,100549.00
2019-04-22T18:04:06.383Z,100555.00
2019-04-22T18:07:05.439Z,100545.00
2019-04-22T18:09:54.767Z,100544.00
2019-04-22T18:12:11.811Z,100541.00
2019-04-22T18:14:47.993Z,100564.00
2019-04-22T18:17:17.304Z,100561.00
2019-04-22T18:19:46.257Z,100559.00
2019-04-22T18:22:12.293Z,100563.00
2019-04-22T18:24:47.449Z,100557.00
2019-04-22T18:27:38.920Z,100565.00
2019-04-22T18:29:55.577Z,100567.00
2019-04-22T18:32:26.078Z,100565.00
2019-04-22T18:34:52.931Z,100564.00
2019-04-22T18:37:40.056Z,100565.00
2019-04-22T18:40:14.885Z,100568.00
2019-04-22T18:42:49.369Z,100575.00
2019-04-22T18:45:35.561Z,100579.00
2019-04-22T18:47:47.299Z,100577.00
2019-04-22T18:50:35.363Z,100580.00
2019-04-22T18:53:28.660Z,100575.00
2019-04-22T18:56:16.585Z,100576.00
2019-04-22T18:58:39.288Z,100574.00
2019-04-22T19:00:59.664Z,100587.00
2019-04-22T19:03:42.737Z,100572.00
2019-04-22T19:06:38.307Z,100594.00
2019-04-22T19:09:08.704Z,100586.00
2019-04-22T19:11:39.011Z,100588.00
2019-04-22T19:16:43.349Z,100598.00
2019-04-22T19:21:47.688Z,100614.00
2019-04-22T19:24:14.912Z,100615.00
2019-04-22T19:29:31.638Z,100620.00
2019-04-22T19:32:04.050Z,100621.00
2019-04-22T19:34:32.113Z,100623.00
2019-04-22T19:37:07.324Z,100625.00
2019-04-22T19:39:40.951Z,100629.00
2019-04-22T19:42:25.110Z,100637.00
2019-04-22T19:44:48.329Z,100635.00
2019-04-22T19:47:30.304Z,100635.00
2019-04-22T19:49:58.101Z,100640.00
2019-04-22T19:52:28.800Z,100642.00
2019-04-22T19:55:10.983Z,100641.00
2019-04-22T19:57:34.519Z,100647.00
2019-04-22T20:00:19.073Z,100647.00
2019-04-22T20:03:21.782Z,100653.00
2019-04-22T20:06:09.872Z,100637.00
2019-04-22T20:08:45.972Z,100647.00
2019-04-22T20:11:17.042Z,100665.00
2019-04-22T20:13:47.696Z,100649.00
2019-04-22T20:16:20.716Z,100656.00
2019-04-22T20:19:01.457Z,100659.00
2019-04-22T20:21:28.305Z,100656.00
2019-04-22T20:23:54.890Z,100654.00
2019-04-22T20:26:44.172Z,100657.00
2019-04-22T20:29:11.762Z,100667.00
2019-04-22T20:31:48.561Z,100664.00
2019-04-22T20:34:21.538Z,100655.00
2019-04-22T20:37:03.704Z,100656.00
2019-04-22T20:39:36.729Z,100658.00
2019-04-22T20:42:16.445Z,100655.00
2019-04-22T20:44:39.698Z,100665.00
2019-04-22T20:47:09.132Z,100653.00
2019-04-22T20:49:44.518Z,100641.00
2019-04-22T20:52:26.181Z,100644.00
2019-04-22T20:54:49.355Z,100652.00
2019-04-22T20:57:25.450Z,100648.00
2019-04-22T20:59:51.085Z,100642.00
2019-04-22T21:02:25.144Z,100644.00
2019-04-22T21:04:53.699Z,100645.00
2019-04-22T21:07:31.454Z,100641.00
2019-04-22T21:10:09.144Z,100643.00
2019-04-22T21:12:36.613Z,100642.00
2019-04-22T21:15:20.739Z,100633.00
2019-04-22T21:17:54.454Z,100635.00
2019-04-22T21:20:43.387Z,100636.00
2019-04-22T21:23:02.685Z,100629.00
2019-04-22T21:25:26.305Z,100632.00
2019-04-22T21:28:18.119Z,100620.00
2019-04-22T21:30:45.213Z,100616.00
2019-04-22T21:33:13.845Z,100620.00
2019-04-22T21:36:03.103Z,100613.00
2019-04-22T21:38:28.063Z,100614.00
2019-04-22T21:40:58.344Z,100604.00
2019-04-22T21:43:35.860Z,100604.00
2019-04-22T21:46:08.793Z,100601.00
2019-04-22T21:48:44.377Z,100601.00
2019-04-22T21:51:22.630Z,100593.00
2019-04-22T21:53:50.365Z,100593.00
2019-04-22T21:56:38.136Z,100591.00
2019-04-22T21:59:01.618Z,100590.00
2019-04-22T22:01:50.720Z,100592.00
2019-04-22T22:04:18.799Z,100596.00
2019-04-22T22:06:40.296Z,100583.00
2019-04-22T22:09:22.866Z,100575.00
2019-04-22T22:11:52.797Z,100573.00
2019-04-22T22:14:27.610Z,100577.00
2019-04-22T22:16:53.337Z,100563.00
2019-04-22T22:19:38.182Z,100564.00
2019-04-22T22:22:25.418Z,100562.00
2019-04-22T22:24:46.321Z,100556.00
2019-04-22T22:27:18.817Z,100545.00
2019-04-22T22:29:57.076Z,100551.00
2019-04-22T22:32:27.455Z,100547.00
2019-04-22T22:34:58.702Z,100546.00
2019-04-22T22:37:16.916Z,100544.00
2019-04-22T22:39:51.299Z,100540.00
2019-04-22T22:42:22.229Z,100535.00
2019-04-22T22:44:59.139Z,100526.00
2019-04-22T22:47:39.322Z,100520.00
2019-04-22T22:50:17.278Z,100521.00
2019-04-22T22:53:01.758Z,100520.00
2019-04-22T22:55:21.769Z,100520.00
2019-04-22T22:57:58.458Z,100513.00
2019-04-22T23:00:33.919Z,100511.00
2019-04-22T23:03:36.671Z,100505.00
2019-04-22T23:05:45.481Z,100512.00
2019-04-22T23:08:20.439Z,100508.00
2019-04-22T23:10:56.961Z,100507.00
2019-04-22T23:13:25.816Z,100507.00
2019-04-22T23:15:50.170Z,100495.00
2019-04-22T23:18:07.847Z,100496.00
2019-04-22T23:20:43.964Z,100498.00
2019-04-22T23:23:33.425Z,100495.00
2019-04-22T23:26:06.811Z,100495.00
2019-04-22T23:28:50.033Z,100495.00
2019-04-22T23:31:23.762Z,100495.00
2019-04-22T23:34:09.222Z,100497.00
2019-04-22T23:36:55.818Z,100490.00
2019-04-22T23:39:42.017Z,100478.00
2019-04-22T23:42:12.911Z,100489.00
2019-04-22T23:44:41.952Z,100487.00
2019-04-22T23:47:23.910Z,100486.00
2019-04-22T23:50:05.527Z,100482.00
2019-04-22T23:52:43.194Z,100485.00
2019-04-22T23:55:17.742Z,100493.00
2019-04-22T23:57:50.549Z,100483.00
